sensor_id;sensor_type;location;lat;lon;timestamp;P1;durP1;ratioP1;P2;durP2;ratioP2
21030;SDS011;61072;47.808;7.636;2022-10-16T00:01:09;4.80;;;2.17;;
21030;SDS011;61072;47.808;7.636;2022-10-16T00:03:38;2.45;;;1.42;;
21030;SDS011;61072;47.808;7.636;2022-10-16T00:06:06;3.75;;;1.60;;
21030;SDS011;61072;47.808;7.636;2022-10-16T00:08:35;8.93;;;2.33;;
21030;SDS011;61072;47.808;7.636;2022-10-16T00:11:03;5.25;;;1.70;;
21030;SDS011;61072;47.808;7.636;2022-10-16T00:13:33;5.55;;;1.50;;
21030;SDS011;61072;47.808;7.636;2022-10-16T00:16:01;5.38;;;1.95;;
21030;SDS011;61072;47.808;7.636;2022-10-16T00:18:29;4.10;;;1.95;;
21030;SDS011;61072;47.808;7.636;2022-10-16T00:21:00;6.55;;;2.45;;
21030;SDS011;61072;47.808;7.636;2022-10-16T00:23:28;10.15;;;2.03;;
21030;SDS011;61072;47.808;7.636;2022-10-16T00:25:56;5.22;;;2.30;;
21030;SDS011;61072;47.808;7.636;2022-10-16T00:28:24;5.45;;;1.52;;
21030;SDS011;61072;47.808;7.636;2022-10-16T00:30:51;9.00;;;1.95;;
21030;SDS011;61072;47.808;7.636;2022-10-16T00:33:19;3.45;;;2.22;;
21030;SDS011;61072;47.808;7.636;2022-10-16T00:35:45;4.40;;;1.95;;
21030;SDS011;61072;47.808;7.636;2022-10-16T00:38:13;5.57;;;2.10;;
21030;SDS011;61072;47.808;7.636;2022-10-16T00:40:40;11.18;;;2.40;;
21030;SDS011;61072;47.808;7.636;2022-10-16T00:43:13;8.15;;;2.47;;
21030;SDS011;61072;47.808;7.636;2022-10-16T00:46:02;9.80;;;2.60;;
21030;SDS011;61072;47.808;7.636;2022-10-16T00:48:30;4.28;;;2.13;;
21030;SDS011;61072;47.808;7.636;2022-10-16T00:50:58;11.93;;;2.30;;
21030;SDS011;61072;47.808;7.636;2022-10-16T00:53:25;5.13;;;2.25;;
21030;SDS011;61072;47.808;7.636;2022-10-16T00:55:53;8.68;;;2.03;;
21030;SDS011;61072;47.808;7.636;2022-10-16T00:58:20;6.40;;;2.03;;
21030;SDS011;61072;47.808;7.636;2022-10-16T01:00:47;8.48;;;2.47;;
21030;SDS011;61072;47.808;7.636;2022-10-16T01:08:45;8.93;;;3.72;;
21030;SDS011;61072;47.808;7.636;2022-10-16T01:11:22;5.85;;;2.55;;
21030;SDS011;61072;47.808;7.636;2022-10-16T01:14:24;4.13;;;2.08;;
21030;SDS011;61072;47.808;7.636;2022-10-16T01:17:00;7.65;;;2.97;;
21030;SDS011;61072;47.808;7.636;2022-10-16T01:19:41;11.15;;;2.40;;
21030;SDS011;61072;47.808;7.636;2022-10-16T01:22:25;7.30;;;2.72;;
21030;SDS011;61072;47.808;7.636;2022-10-16T01:24:56;5.47;;;2.20;;
21030;SDS011;61072;47.808;7.636;2022-10-16T01:27:27;10.02;;;2.58;;
21030;SDS011;61072;47.808;7.636;2022-10-16T01:29:59;6.45;;;2.00;;
21030;SDS011;61072;47.808;7.636;2022-10-16T01:32:35;3.65;;;2.20;;
21030;SDS011;61072;47.808;7.636;2022-10-16T01:35:10;3.17;;;2.33;;
21030;SDS011;61072;47.808;7.636;2022-10-16T01:37:43;3.67;;;1.90;;
21030;SDS011;61072;47.808;7.636;2022-10-16T01:40:17;5.43;;;2.17;;
21030;SDS011;61072;47.808;7.636;2022-10-16T01:42:51;3.70;;;2.30;;
21030;SDS011;61072;47.808;7.636;2022-10-16T01:45:28;7.13;;;2.00;;
21030;SDS011;61072;47.808;7.636;2022-10-16T01:47:58;9.45;;;1.98;;
21030;SDS011;61072;47.808;7.636;2022-10-16T01:50:30;8.20;;;1.92;;
21030;SDS011;61072;47.808;7.636;2022-10-16T01:53:00;3.10;;;1.58;;
21030;SDS011;61072;47.808;7.636;2022-10-16T01:55:31;7.00;;;1.70;;
21030;SDS011;61072;47.808;7.636;2022-10-16T01:58:01;6.68;;;1.55;;
21030;SDS011;61072;47.808;7.636;2022-10-16T02:00:31;5.15;;;1.50;;
21030;SDS011;61072;47.808;7.636;2022-10-16T02:02:58;3.58;;;1.33;;
21030;SDS011;61072;47.808;7.636;2022-10-16T02:08:00;6.30;;;1.70;;
21030;SDS011;61072;47.808;7.636;2022-10-16T02:10:30;8.25;;;1.58;;
21030;SDS011;61072;47.808;7.636;2022-10-16T02:13:12;7.13;;;1.75;;
21030;SDS011;61072;47.808;7.636;2022-10-16T02:15:43;4.75;;;1.35;;
21030;SDS011;61072;47.808;7.636;2022-10-16T02:18:09;19.58;;;1.85;;
21030;SDS011;61072;47.808;7.636;2022-10-16T02:20:40;4.40;;;1.40;;
21030;SDS011;61072;47.808;7.636;2022-10-16T02:23:19;6.33;;;1.57;;
21030;SDS011;61072;47.808;7.636;2022-10-16T02:26:03;5.20;;;1.40;;
21030;SDS011;61072;47.808;7.636;2022-10-16T02:28:36;2.35;;;1.40;;
21030;SDS011;61072;47.808;7.636;2022-10-16T02:31:14;4.90;;;2.15;;
21030;SDS011;61072;47.808;7.636;2022-10-16T02:33:47;5.53;;;1.20;;
21030;SDS011;61072;47.808;7.636;2022-10-16T02:36:14;6.53;;;2.03;;
21030;SDS011;61072;47.808;7.636;2022-10-16T02:38:40;4.68;;;1.55;;
21030;SDS011;61072;47.808;7.636;2022-10-16T02:41:08;4.13;;;1.55;;
21030;SDS011;61072;47.808;7.636;2022-10-16T02:43:35;5.07;;;1.60;;
21030;SDS011;61072;47.808;7.636;2022-10-16T02:46:01;8.68;;;1.65;;
21030;SDS011;61072;47.808;7.636;2022-10-16T02:48:28;4.90;;;1.23;;
21030;SDS011;61072;47.808;7.636;2022-10-16T02:50:55;4.53;;;1.13;;
21030;SDS011;61072;47.808;7.636;2022-10-16T02:53:23;11.20;;;1.73;;
21030;SDS011;61072;47.808;7.636;2022-10-16T02:55:50;8.68;;;1.25;;
21030;SDS011;61072;47.808;7.636;2022-10-16T02:58:16;5.78;;;1.75;;
21030;SDS011;61072;47.808;7.636;2022-10-16T03:00:43;6.28;;;1.17;;
21030;SDS011;61072;47.808;7.636;2022-10-16T03:03:10;10.15;;;1.67;;
21030;SDS011;61072;47.808;7.636;2022-10-16T03:05:36;5.93;;;1.10;;
21030;SDS011;61072;47.808;7.636;2022-10-16T03:08:03;5.20;;;1.20;;
21030;SDS011;61072;47.808;7.636;2022-10-16T03:10:30;7.75;;;1.23;;
21030;SDS011;61072;47.808;7.636;2022-10-16T03:12:57;4.47;;;1.10;;
21030;SDS011;61072;47.808;7.636;2022-10-16T03:15:23;9.60;;;1.30;;
21030;SDS011;61072;47.808;7.636;2022-10-16T03:17:50;9.73;;;1.50;;
21030;SDS011;61072;47.808;7.636;2022-10-16T03:20:17;6.28;;;1.23;;
21030;SDS011;61072;47.808;7.636;2022-10-16T03:22:43;3.72;;;1.38;;
21030;SDS011;61072;47.808;7.636;2022-10-16T03:25:10;5.53;;;1.48;;
21030;SDS011;61072;47.808;7.636;2022-10-16T03:27:37;4.32;;;1.60;;
21030;SDS011;61072;47.808;7.636;2022-10-16T03:30:03;9.10;;;1.30;;
21030;SDS011;61072;47.808;7.636;2022-10-16T03:32:31;7.82;;;1.58;;
21030;SDS011;61072;47.808;7.636;2022-10-16T03:34:57;8.02;;;1.35;;
21030;SDS011;61072;47.808;7.636;2022-10-16T03:37:24;7.18;;;1.40;;
21030;SDS011;61072;47.808;7.636;2022-10-16T03:39:51;8.48;;;2.53;;
21030;SDS011;61072;47.808;7.636;2022-10-16T03:42:18;3.33;;;1.45;;
21030;SDS011;61072;47.808;7.636;2022-10-16T03:44:45;4.97;;;1.80;;
21030;SDS011;61072;47.808;7.636;2022-10-16T03:47:12;7.15;;;1.35;;
21030;SDS011;61072;47.808;7.636;2022-10-16T03:49:39;6.28;;;1.30;;
21030;SDS011;61072;47.808;7.636;2022-10-16T03:52:05;5.38;;;1.27;;
21030;SDS011;61072;47.808;7.636;2022-10-16T03:54:32;7.18;;;1.50;;
21030;SDS011;61072;47.808;7.636;2022-10-16T03:56:59;11.75;;;1.50;;
21030;SDS011;61072;47.808;7.636;2022-10-16T03:59:25;3.72;;;1.33;;
21030;SDS011;61072;47.808;7.636;2022-10-16T04:01:52;8.05;;;1.63;;
21030;SDS011;61072;47.808;7.636;2022-10-16T04:04:19;9.77;;;1.70;;
21030;SDS011;61072;47.808;7.636;2022-10-16T04:06:45;12.27;;;1.70;;
21030;SDS011;61072;47.808;7.636;2022-10-16T04:09:12;8.05;;;1.55;;
21030;SDS011;61072;47.808;7.636;2022-10-16T04:11:39;4.13;;;1.30;;
21030;SDS011;61072;47.808;7.636;2022-10-16T04:14:05;6.20;;;1.52;;
21030;SDS011;61072;47.808;7.636;2022-10-16T04:16:32;4.55;;;1.85;;
21030;SDS011;61072;47.808;7.636;2022-10-16T04:18:59;2.28;;;1.23;;
21030;SDS011;61072;47.808;7.636;2022-10-16T04:21:25;1.55;;;1.17;;
21030;SDS011;61072;47.808;7.636;2022-10-16T04:23:52;2.72;;;1.20;;
21030;SDS011;61072;47.808;7.636;2022-10-16T04:26:19;3.65;;;1.30;;
21030;SDS011;61072;47.808;7.636;2022-10-16T04:28:45;2.72;;;0.98;;
21030;SDS011;61072;47.808;7.636;2022-10-16T04:31:12;2.75;;;1.27;;
21030;SDS011;61072;47.808;7.636;2022-10-16T04:33:41;3.85;;;0.90;;
21030;SDS011;61072;47.808;7.636;2022-10-16T04:36:09;7.95;;;1.42;;
21030;SDS011;61072;47.808;7.636;2022-10-16T04:38:35;4.40;;;1.35;;
21030;SDS011;61072;47.808;7.636;2022-10-16T04:41:03;4.53;;;1.60;;
21030;SDS011;61072;47.808;7.636;2022-10-16T04:43:30;2.25;;;1.33;;
21030;SDS011;61072;47.808;7.636;2022-10-16T04:45:57;6.10;;;1.35;;
21030;SDS011;61072;47.808;7.636;2022-10-16T04:48:24;9.05;;;1.10;;
21030;SDS011;61072;47.808;7.636;2022-10-16T04:50:50;9.65;;;1.52;;
21030;SDS011;61072;47.808;7.636;2022-10-16T04:53:20;10.80;;;1.40;;
21030;SDS011;61072;47.808;7.636;2022-10-16T04:55:47;1.55;;;1.00;;
21030;SDS011;61072;47.808;7.636;2022-10-16T04:58:13;6.90;;;1.40;;
21030;SDS011;61072;47.808;7.636;2022-10-16T05:00:40;9.75;;;1.50;;
21030;SDS011;61072;47.808;7.636;2022-10-16T05:03:07;9.57;;;1.15;;
21030;SDS011;61072;47.808;7.636;2022-10-16T05:05:35;14.70;;;1.50;;
21030;SDS011;61072;47.808;7.636;2022-10-16T05:08:02;2.78;;;1.40;;
21030;SDS011;61072;47.808;7.636;2022-10-16T05:10:30;4.35;;;1.55;;
21030;SDS011;61072;47.808;7.636;2022-10-16T05:12:56;7.70;;;1.52;;
21030;SDS011;61072;47.808;7.636;2022-10-16T05:15:23;3.72;;;1.60;;
21030;SDS011;61072;47.808;7.636;2022-10-16T05:17:54;2.47;;;1.63;;
21030;SDS011;61072;47.808;7.636;2022-10-16T05:20:21;2.70;;;1.70;;
21030;SDS011;61072;47.808;7.636;2022-10-16T05:22:49;8.55;;;1.77;;
21030;SDS011;61072;47.808;7.636;2022-10-16T05:25:16;4.13;;;1.63;;
21030;SDS011;61072;47.808;7.636;2022-10-16T05:27:43;4.45;;;1.70;;
21030;SDS011;61072;47.808;7.636;2022-10-16T05:30:12;3.80;;;1.50;;
21030;SDS011;61072;47.808;7.636;2022-10-16T05:32:39;4.50;;;1.88;;
21030;SDS011;61072;47.808;7.636;2022-10-16T05:35:06;5.03;;;3.40;;
21030;SDS011;61072;47.808;7.636;2022-10-16T05:37:37;5.15;;;2.63;;
21030;SDS011;61072;47.808;7.636;2022-10-16T05:40:04;4.72;;;2.50;;
21030;SDS011;61072;47.808;7.636;2022-10-16T05:42:31;7.53;;;3.08;;
21030;SDS011;61072;47.808;7.636;2022-10-16T05:44:58;5.70;;;2.20;;
21030;SDS011;61072;47.808;7.636;2022-10-16T05:47:25;5.80;;;2.65;;
21030;SDS011;61072;47.808;7.636;2022-10-16T05:49:52;6.45;;;2.72;;
21030;SDS011;61072;47.808;7.636;2022-10-16T05:52:19;5.97;;;1.88;;
21030;SDS011;61072;47.808;7.636;2022-10-16T05:54:45;8.85;;;1.90;;
21030;SDS011;61072;47.808;7.636;2022-10-16T05:57:12;4.93;;;1.67;;
21030;SDS011;61072;47.808;7.636;2022-10-16T05:59:39;4.53;;;1.60;;
21030;SDS011;61072;47.808;7.636;2022-10-16T06:02:05;10.10;;;1.90;;
21030;SDS011;61072;47.808;7.636;2022-10-16T06:04:35;4.85;;;1.80;;
21030;SDS011;61072;47.808;7.636;2022-10-16T06:07:01;5.65;;;1.70;;
21030;SDS011;61072;47.808;7.636;2022-10-16T06:09:28;4.57;;;1.50;;
21030;SDS011;61072;47.808;7.636;2022-10-16T06:11:54;4.63;;;1.70;;
21030;SDS011;61072;47.808;7.636;2022-10-16T06:14:21;7.43;;;1.63;;
21030;SDS011;61072;47.808;7.636;2022-10-16T06:16:48;10.30;;;1.73;;
21030;SDS011;61072;47.808;7.636;2022-10-16T06:19:15;12.40;;;2.60;;
21030;SDS011;61072;47.808;7.636;2022-10-16T06:21:42;5.97;;;1.70;;
21030;SDS011;61072;47.808;7.636;2022-10-16T06:24:09;5.40;;;2.15;;
21030;SDS011;61072;47.808;7.636;2022-10-16T06:26:36;4.13;;;1.98;;
21030;SDS011;61072;47.808;7.636;2022-10-16T06:29:04;5.65;;;1.70;;
21030;SDS011;61072;47.808;7.636;2022-10-16T06:31:30;6.32;;;1.80;;
21030;SDS011;61072;47.808;7.636;2022-10-16T06:33:59;5.53;;;1.70;;
21030;SDS011;61072;47.808;7.636;2022-10-16T06:36:27;3.22;;;2.03;;
21030;SDS011;61072;47.808;7.636;2022-10-16T06:38:54;3.10;;;1.80;;
21030;SDS011;61072;47.808;7.636;2022-10-16T06:41:21;6.05;;;1.98;;
21030;SDS011;61072;47.808;7.636;2022-10-16T06:43:48;10.02;;;3.03;;
21030;SDS011;61072;47.808;7.636;2022-10-16T06:46:17;6.25;;;1.80;;
21030;SDS011;61072;47.808;7.636;2022-10-16T06:48:45;4.95;;;2.28;;
21030;SDS011;61072;47.808;7.636;2022-10-16T06:51:16;3.42;;;1.75;;
21030;SDS011;61072;47.808;7.636;2022-10-16T06:53:48;7.95;;;4.93;;
21030;SDS011;61072;47.808;7.636;2022-10-16T06:56:32;8.63;;;3.50;;
21030;SDS011;61072;47.808;7.636;2022-10-16T06:58:59;5.75;;;2.17;;
21030;SDS011;61072;47.808;7.636;2022-10-16T07:01:27;6.32;;;3.60;;
21030;SDS011;61072;47.808;7.636;2022-10-16T07:03:54;7.90;;;3.55;;
21030;SDS011;61072;47.808;7.636;2022-10-16T07:06:22;5.45;;;3.22;;
21030;SDS011;61072;47.808;7.636;2022-10-16T07:08:50;8.15;;;3.17;;
21030;SDS011;61072;47.808;7.636;2022-10-16T07:11:18;10.70;;;7.57;;
21030;SDS011;61072;47.808;7.636;2022-10-16T07:13:46;14.43;;;8.13;;
21030;SDS011;61072;47.808;7.636;2022-10-16T07:16:20;11.93;;;7.53;;
21030;SDS011;61072;47.808;7.636;2022-10-16T07:18:49;5.03;;;2.97;;
21030;SDS011;61072;47.808;7.636;2022-10-16T07:21:21;3.92;;;2.60;;
21030;SDS011;61072;47.808;7.636;2022-10-16T07:23:55;2.70;;;2.28;;
21030;SDS011;61072;47.808;7.636;2022-10-16T07:26:23;7.68;;;2.38;;
21030;SDS011;61072;47.808;7.636;2022-10-16T07:28:52;6.45;;;2.20;;
21030;SDS011;61072;47.808;7.636;2022-10-16T07:31:19;6.75;;;2.42;;
21030;SDS011;61072;47.808;7.636;2022-10-16T07:33:46;8.68;;;2.22;;
21030;SDS011;61072;47.808;7.636;2022-10-16T07:36:17;7.25;;;2.25;;
21030;SDS011;61072;47.808;7.636;2022-10-16T07:38:45;5.53;;;2.00;;
21030;SDS011;61072;47.808;7.636;2022-10-16T07:41:14;3.55;;;2.10;;
21030;SDS011;61072;47.808;7.636;2022-10-16T07:43:49;3.22;;;1.48;;
21030;SDS011;61072;47.808;7.636;2022-10-16T07:46:18;3.00;;;1.48;;
21030;SDS011;61072;47.808;7.636;2022-10-16T07:48:45;7.82;;;1.60;;
21030;SDS011;61072;47.808;7.636;2022-10-16T07:51:15;7.57;;;1.63;;
21030;SDS011;61072;47.808;7.636;2022-10-16T07:53:43;3.57;;;2.10;;
21030;SDS011;61072;47.808;7.636;2022-10-16T07:56:10;2.97;;;2.40;;
21030;SDS011;61072;47.808;7.636;2022-10-16T07:58:38;7.65;;;4.43;;
21030;SDS011;61072;47.808;7.636;2022-10-16T08:01:05;10.20;;;7.35;;
21030;SDS011;61072;47.808;7.636;2022-10-16T08:03:34;11.70;;;7.70;;
21030;SDS011;61072;47.808;7.636;2022-10-16T08:06:01;9.93;;;4.15;;
21030;SDS011;61072;47.808;7.636;2022-10-16T08:08:29;4.63;;;2.60;;
21030;SDS011;61072;47.808;7.636;2022-10-16T08:10:56;6.43;;;2.05;;
21030;SDS011;61072;47.808;7.636;2022-10-16T08:13:22;4.88;;;2.28;;
21030;SDS011;61072;47.808;7.636;2022-10-16T08:15:49;5.38;;;1.40;;
21030;SDS011;61072;47.808;7.636;2022-10-16T08:18:16;2.90;;;1.40;;
21030;SDS011;61072;47.808;7.636;2022-10-16T08:20:43;3.65;;;1.30;;
21030;SDS011;61072;47.808;7.636;2022-10-16T08:23:13;4.10;;;1.42;;
21030;SDS011;61072;47.808;7.636;2022-10-16T08:25:40;4.85;;;1.50;;
21030;SDS011;61072;47.808;7.636;2022-10-16T08:28:08;4.80;;;1.58;;
21030;SDS011;61072;47.808;7.636;2022-10-16T08:30:36;2.80;;;1.02;;
21030;SDS011;61072;47.808;7.636;2022-10-16T08:33:04;7.22;;;1.30;;
21030;SDS011;61072;47.808;7.636;2022-10-16T08:35:30;6.68;;;1.20;;
21030;SDS011;61072;47.808;7.636;2022-10-16T08:37:57;3.25;;;1.15;;
21030;SDS011;61072;47.808;7.636;2022-10-16T08:40:25;3.85;;;1.25;;
21030;SDS011;61072;47.808;7.636;2022-10-16T08:43:01;1.92;;;0.80;;
21030;SDS011;61072;47.808;7.636;2022-10-16T08:45:54;4.32;;;0.90;;
21030;SDS011;61072;47.808;7.636;2022-10-16T08:48:50;1.85;;;0.77;;
21030;SDS011;61072;47.808;7.636;2022-10-16T08:51:22;2.72;;;0.90;;
21030;SDS011;61072;47.808;7.636;2022-10-16T08:53:59;1.00;;;0.80;;
21030;SDS011;61072;47.808;7.636;2022-10-16T08:56:29;4.47;;;0.63;;
21030;SDS011;61072;47.808;7.636;2022-10-16T08:58:57;4.93;;;0.70;;
21030;SDS011;61072;47.808;7.636;2022-10-16T09:01:38;1.85;;;0.57;;
21030;SDS011;61072;47.808;7.636;2022-10-16T09:07:27;1.08;;;0.60;;
21030;SDS011;61072;47.808;7.636;2022-10-16T09:12:45;7.70;;;0.90;;
21030;SDS011;61072;47.808;7.636;2022-10-16T09:23:26;4.97;;;1.13;;
21030;SDS011;61072;47.808;7.636;2022-10-16T09:25:59;2.30;;;0.80;;
21030;SDS011;61072;47.808;7.636;2022-10-16T09:28:29;3.47;;;0.80;;
21030;SDS011;61072;47.808;7.636;2022-10-16T09:30:59;0.95;;;0.77;;
21030;SDS011;61072;47.808;7.636;2022-10-16T09:33:29;5.38;;;0.95;;
21030;SDS011;61072;47.808;7.636;2022-10-16T09:36:00;1.58;;;0.90;;
21030;SDS011;61072;47.808;7.636;2022-10-16T09:38:30;4.97;;;0.73;;
21030;SDS011;61072;47.808;7.636;2022-10-16T09:41:21;3.13;;;0.95;;
21030;SDS011;61072;47.808;7.636;2022-10-16T09:43:53;2.78;;;1.27;;
21030;SDS011;61072;47.808;7.636;2022-10-16T09:49:03;4.50;;;1.17;;
21030;SDS011;61072;47.808;7.636;2022-10-16T09:51:36;2.10;;;1.00;;
21030;SDS011;61072;47.808;7.636;2022-10-16T09:56:49;3.05;;;1.20;;
21030;SDS011;61072;47.808;7.636;2022-10-16T09:59:27;3.97;;;1.20;;
21030;SDS011;61072;47.808;7.636;2022-10-16T10:01:58;4.10;;;1.10;;
21030;SDS011;61072;47.808;7.636;2022-10-16T10:04:37;3.58;;;0.88;;
21030;SDS011;61072;47.808;7.636;2022-10-16T10:07:27;4.25;;;0.98;;
21030;SDS011;61072;47.808;7.636;2022-10-16T10:10:00;1.42;;;0.93;;
21030;SDS011;61072;47.808;7.636;2022-10-16T10:12:35;3.10;;;0.73;;
21030;SDS011;61072;47.808;7.636;2022-10-16T10:15:11;5.15;;;0.80;;
21030;SDS011;61072;47.808;7.636;2022-10-16T10:17:49;5.30;;;0.90;;
21030;SDS011;61072;47.808;7.636;2022-10-16T10:20:26;3.83;;;0.70;;
21030;SDS011;61072;47.808;7.636;2022-10-16T10:22:57;7.25;;;1.13;;
21030;SDS011;61072;47.808;7.636;2022-10-16T10:25:38;10.32;;;1.35;;
21030;SDS011;61072;47.808;7.636;2022-10-16T10:28:24;3.17;;;0.82;;
21030;SDS011;61072;47.808;7.636;2022-10-16T10:40:22;8.07;;;1.50;;
21030;SDS011;61072;47.808;7.636;2022-10-16T10:43:04;6.28;;;1.10;;
21030;SDS011;61072;47.808;7.636;2022-10-16T10:46:07;2.22;;;0.85;;
21030;SDS011;61072;47.808;7.636;2022-10-16T10:54:35;2.78;;;1.00;;
21030;SDS011;61072;47.808;7.636;2022-10-16T10:57:22;1.92;;;1.13;;
21030;SDS011;61072;47.808;7.636;2022-10-16T11:00:23;4.22;;;1.05;;
21030;SDS011;61072;47.808;7.636;2022-10-16T11:03:31;3.10;;;1.05;;
21030;SDS011;61072;47.808;7.636;2022-10-16T11:06:20;3.40;;;0.80;;
21030;SDS011;61072;47.808;7.636;2022-10-16T11:09:08;2.15;;;0.98;;
21030;SDS011;61072;47.808;7.636;2022-10-16T11:11:54;4.53;;;0.80;;
21030;SDS011;61072;47.808;7.636;2022-10-16T11:14:28;2.00;;;0.90;;
21030;SDS011;61072;47.808;7.636;2022-10-16T11:17:03;1.00;;;0.85;;
21030;SDS011;61072;47.808;7.636;2022-10-16T11:20:11;2.80;;;0.73;;
21030;SDS011;61072;47.808;7.636;2022-10-16T11:23:14;3.72;;;1.08;;
21030;SDS011;61072;47.808;7.636;2022-10-16T11:25:47;2.25;;;1.20;;
21030;SDS011;61072;47.808;7.636;2022-10-16T11:31:00;1.15;;;1.02;;
21030;SDS011;61072;47.808;7.636;2022-10-16T11:36:29;2.67;;;0.80;;
21030;SDS011;61072;47.808;7.636;2022-10-16T11:41:39;2.83;;;0.65;;
21030;SDS011;61072;47.808;7.636;2022-10-16T11:50:42;1.92;;;0.80;;
21030;SDS011;61072;47.808;7.636;2022-10-16T11:56:15;2.88;;;0.82;;
21030;SDS011;61072;47.808;7.636;2022-10-16T12:01:44;2.30;;;0.90;;
21030;SDS011;61072;47.808;7.636;2022-10-16T12:04:49;0.80;;;0.68;;
21030;SDS011;61072;47.808;7.636;2022-10-16T12:07:26;5.38;;;0.93;;
21030;SDS011;61072;47.808;7.636;2022-10-16T12:10:09;5.05;;;0.98;;
21030;SDS011;61072;47.808;7.636;2022-10-16T12:12:52;7.38;;;1.20;;
21030;SDS011;61072;47.808;7.636;2022-10-16T12:15:26;3.08;;;1.08;;
21030;SDS011;61072;47.808;7.636;2022-10-16T12:18:24;7.53;;;0.90;;
21030;SDS011;61072;47.808;7.636;2022-10-16T12:20:55;2.97;;;1.00;;
21030;SDS011;61072;47.808;7.636;2022-10-16T12:23:25;2.22;;;0.98;;
21030;SDS011;61072;47.808;7.636;2022-10-16T12:25:55;4.35;;;1.10;;
21030;SDS011;61072;47.808;7.636;2022-10-16T12:28:29;5.30;;;1.30;;
21030;SDS011;61072;47.808;7.636;2022-10-16T12:31:01;4.25;;;2.60;;
21030;SDS011;61072;47.808;7.636;2022-10-16T12:33:35;0.82;;;0.77;;
21030;SDS011;61072;47.808;7.636;2022-10-16T12:36:10;4.38;;;1.10;;
21030;SDS011;61072;47.808;7.636;2022-10-16T12:38:52;18.70;;;1.40;;
21030;SDS011;61072;47.808;7.636;2022-10-16T12:41:38;3.28;;;0.90;;
21030;SDS011;61072;47.808;7.636;2022-10-16T12:44:20;3.40;;;0.90;;
21030;SDS011;61072;47.808;7.636;2022-10-16T12:46:52;3.75;;;1.10;;
21030;SDS011;61072;47.808;7.636;2022-10-16T12:49:29;1.73;;;1.00;;
21030;SDS011;61072;47.808;7.636;2022-10-16T12:52:03;4.75;;;1.10;;
21030;SDS011;61072;47.808;7.636;2022-10-16T12:54:34;4.15;;;0.98;;
21030;SDS011;61072;47.808;7.636;2022-10-16T12:57:09;7.35;;;1.10;;
21030;SDS011;61072;47.808;7.636;2022-10-16T13:02:44;3.90;;;0.95;;
21030;SDS011;61072;47.808;7.636;2022-10-16T13:11:18;3.25;;;1.13;;
21030;SDS011;61072;47.808;7.636;2022-10-16T13:14:04;3.30;;;0.85;;
21030;SDS011;61072;47.808;7.636;2022-10-16T13:17:11;5.40;;;1.33;;
21030;SDS011;61072;47.808;7.636;2022-10-16T13:30:26;3.20;;;0.82;;
21030;SDS011;61072;47.808;7.636;2022-10-16T13:36:02;3.70;;;0.82;;
21030;SDS011;61072;47.808;7.636;2022-10-16T13:38:31;3.85;;;1.10;;
21030;SDS011;61072;47.808;7.636;2022-10-16T13:43:32;6.68;;;1.38;;
21030;SDS011;61072;47.808;7.636;2022-10-16T13:46:04;2.33;;;0.80;;
21030;SDS011;61072;47.808;7.636;2022-10-16T13:48:31;5.75;;;1.10;;
21030;SDS011;61072;47.808;7.636;2022-10-16T13:51:04;1.00;;;0.90;;
21030;SDS011;61072;47.808;7.636;2022-10-16T13:53:41;4.50;;;1.02;;
21030;SDS011;61072;47.808;7.636;2022-10-16T13:56:13;4.00;;;0.93;;
21030;SDS011;61072;47.808;7.636;2022-10-16T13:58:41;4.10;;;0.80;;
21030;SDS011;61072;47.808;7.636;2022-10-16T14:01:19;5.40;;;0.88;;
21030;SDS011;61072;47.808;7.636;2022-10-16T14:04:00;3.58;;;0.80;;
21030;SDS011;61072;47.808;7.636;2022-10-16T14:06:29;2.88;;;0.88;;
21030;SDS011;61072;47.808;7.636;2022-10-16T14:09:06;2.63;;;0.90;;
21030;SDS011;61072;47.808;7.636;2022-10-16T14:11:54;4.68;;;0.88;;
21030;SDS011;61072;47.808;7.636;2022-10-16T14:14:27;4.45;;;1.02;;
21030;SDS011;61072;47.808;7.636;2022-10-16T14:17:02;2.85;;;1.15;;
21030;SDS011;61072;47.808;7.636;2022-10-16T14:19:29;10.23;;;1.98;;
21030;SDS011;61072;47.808;7.636;2022-10-16T14:21:57;1.02;;;0.75;;
21030;SDS011;61072;47.808;7.636;2022-10-16T14:24:30;0.90;;;0.63;;
21030;SDS011;61072;47.808;7.636;2022-10-16T14:26:59;3.00;;;0.90;;
21030;SDS011;61072;47.808;7.636;2022-10-16T14:29:27;1.13;;;0.85;;
21030;SDS011;61072;47.808;7.636;2022-10-16T14:31:58;7.05;;;0.95;;
21030;SDS011;61072;47.808;7.636;2022-10-16T14:34:34;3.50;;;1.10;;
21030;SDS011;61072;47.808;7.636;2022-10-16T14:37:14;4.53;;;1.00;;
21030;SDS011;61072;47.808;7.636;2022-10-16T14:39:53;3.17;;;1.27;;
21030;SDS011;61072;47.808;7.636;2022-10-16T14:42:22;4.93;;;1.13;;
21030;SDS011;61072;47.808;7.636;2022-10-16T14:44:51;2.38;;;1.15;;
21030;SDS011;61072;47.808;7.636;2022-10-16T14:47:20;4.72;;;1.30;;
21030;SDS011;61072;47.808;7.636;2022-10-16T14:49:52;2.40;;;0.80;;
21030;SDS011;61072;47.808;7.636;2022-10-16T14:52:25;1.27;;;0.73;;
21030;SDS011;61072;47.808;7.636;2022-10-16T14:54:51;3.15;;;0.77;;
21030;SDS011;61072;47.808;7.636;2022-10-16T14:57:23;2.78;;;0.90;;
21030;SDS011;61072;47.808;7.636;2022-10-16T14:59:53;1.98;;;0.82;;
21030;SDS011;61072;47.808;7.636;2022-10-16T15:02:22;1.98;;;0.70;;
21030;SDS011;61072;47.808;7.636;2022-10-16T15:04:55;1.75;;;0.98;;
21030;SDS011;61072;47.808;7.636;2022-10-16T15:07:22;2.80;;;0.80;;
21030;SDS011;61072;47.808;7.636;2022-10-16T15:09:50;4.30;;;1.00;;
21030;SDS011;61072;47.808;7.636;2022-10-16T15:12:17;2.33;;;0.70;;
21030;SDS011;61072;47.808;7.636;2022-10-16T15:14:44;1.23;;;0.70;;
21030;SDS011;61072;47.808;7.636;2022-10-16T15:17:11;0.95;;;0.70;;
21030;SDS011;61072;47.808;7.636;2022-10-16T15:19:37;5.13;;;1.10;;
21030;SDS011;61072;47.808;7.636;2022-10-16T15:22:04;4.00;;;1.02;;
21030;SDS011;61072;47.808;7.636;2022-10-16T15:24:31;4.70;;;0.90;;
21030;SDS011;61072;47.808;7.636;2022-10-16T15:26:58;2.05;;;0.60;;
21030;SDS011;61072;47.808;7.636;2022-10-16T15:29:24;4.40;;;0.90;;
21030;SDS011;61072;47.808;7.636;2022-10-16T15:31:51;1.85;;;0.70;;
21030;SDS011;61072;47.808;7.636;2022-10-16T15:34:18;2.10;;;1.00;;
21030;SDS011;61072;47.808;7.636;2022-10-16T15:36:45;3.55;;;0.90;;
21030;SDS011;61072;47.808;7.636;2022-10-16T15:41:41;5.57;;;1.30;;
21030;SDS011;61072;47.808;7.636;2022-10-16T15:44:09;2.72;;;1.20;;
21030;SDS011;61072;47.808;7.636;2022-10-16T15:46:35;2.40;;;0.98;;
21030;SDS011;61072;47.808;7.636;2022-10-16T15:49:03;6.40;;;1.58;;
21030;SDS011;61072;47.808;7.636;2022-10-16T15:51:30;5.15;;;1.05;;
21030;SDS011;61072;47.808;7.636;2022-10-16T15:53:59;6.78;;;1.20;;
21030;SDS011;61072;47.808;7.636;2022-10-16T15:56:28;8.95;;;1.10;;
21030;SDS011;61072;47.808;7.636;2022-10-16T15:58:55;8.27;;;1.38;;
21030;SDS011;61072;47.808;7.636;2022-10-16T16:01:24;18.02;;;1.30;;
21030;SDS011;61072;47.808;7.636;2022-10-16T16:03:54;9.95;;;1.17;;
21030;SDS011;61072;47.808;7.636;2022-10-16T16:08:50;9.07;;;1.75;;
21030;SDS011;61072;47.808;7.636;2022-10-16T16:11:18;3.97;;;1.25;;
21030;SDS011;61072;47.808;7.636;2022-10-16T16:13:45;4.88;;;1.00;;
21030;SDS011;61072;47.808;7.636;2022-10-16T16:16:13;8.25;;;1.13;;
21030;SDS011;61072;47.808;7.636;2022-10-16T16:18:41;8.75;;;1.52;;
21030;SDS011;61072;47.808;7.636;2022-10-16T16:21:12;4.25;;;1.30;;
21030;SDS011;61072;47.808;7.636;2022-10-16T16:26:07;6.30;;;1.75;;
21030;SDS011;61072;47.808;7.636;2022-10-16T16:28:37;9.50;;;2.10;;
21030;SDS011;61072;47.808;7.636;2022-10-16T16:31:05;7.53;;;1.63;;
21030;SDS011;61072;47.808;7.636;2022-10-16T16:33:33;5.53;;;1.67;;
21030;SDS011;61072;47.808;7.636;2022-10-16T16:36:01;7.15;;;1.58;;
21030;SDS011;61072;47.808;7.636;2022-10-16T16:38:31;7.95;;;3.08;;
21030;SDS011;61072;47.808;7.636;2022-10-16T16:40:59;5.65;;;1.92;;
21030;SDS011;61072;47.808;7.636;2022-10-16T16:43:26;5.80;;;1.42;;
21030;SDS011;61072;47.808;7.636;2022-10-16T16:45:54;7.22;;;1.48;;
21030;SDS011;61072;47.808;7.636;2022-10-16T16:48:21;7.72;;;1.88;;